Time;durP1;ratioP1;P1;durP2;ratioP2;P2;SDS_P1;SDS_P2;PMS_P1;PMS_P2;Temp;Humidity;BMP_temperature;BMP_pressure;BME280_temperature;BME280_humidity;BME280_pressure;Samples;Min_cycle;Max_cycle;Signal;HPM_P1;HPM_P2
2023/07/10 00:00:37;;;;;;;11.63;10.60;;;;;;;;;;5053004;28;20503;-80
2023/07/10 00:03:08;;;;;;;11.43;10.23;;;;;;;;;;5056812;28;20447;-80
2023/07/10 00:05:34;;;;;;;11.60;10.47;;;;;;;;;;5037947;28;20476;-80
2023/07/10 00:08:00;;;;;;;11.90;10.70;;;;;;;;;;5045157;28;20484;-80
2023/07/10 00:10:27;;;;;;;11.00;9.97;;;;;;;;;;5057972;28;20473;-80
2023/07/10 00:12:54;;;;;;;10.83;9.37;;;;;;;;;;5040926;28;20576;-80
2023/07/10 00:15:21;;;;;;;11.47;10.27;;;;;;;;;;5049926;28;20471;-80
2023/07/10 00:17:48;;;;;;;11.60;10.60;;;;;;;;;;5051243;28;21100;-80
2023/07/10 00:20:17;;;;;;;14.40;11.80;;;;;;;;;;5047439;28;20464;-80
2023/07/10 00:22:43;;;;;;;13.00;10.70;;;;;;;;;;5053084;28;20444;-81
2023/07/10 00:25:10;;;;;;;14.00;12.60;;;;;;;;;;5046618;28;20509;-80
2023/07/10 00:27:36;;;;;;;13.63;12.00;;;;;;;;;;5054013;28;20472;-81
2023/07/10 00:30:03;;;;;;;11.83;10.73;;;;;;;;;;5057243;28;20478;-80
2023/07/10 00:32:29;;;;;;;13.77;12.33;;;;;;;;;;5054913;28;20479;-80
2023/07/10 00:34:56;;;;;;;13.00;11.53;;;;;;;;;;5056106;28;20449;-81
2023/07/10 00:37:23;;;;;;;16.33;12.77;;;;;;;;;;5057402;28;20464;-80
2023/07/10 00:39:50;;;;;;;17.87;11.80;;;;;;;;;;5053205;28;20452;-80
2023/07/10 00:42:18;;;;;;;17.70;11.40;;;;;;;;;;5044868;28;20461;-81
2023/07/10 00:44:47;;;;;;;14.47;12.97;;;;;;;;;;5056306;28;20452;-83
2023/07/10 00:47:17;;;;;;;13.23;11.40;;;;;;;;;;5055955;28;20475;-80
2023/07/10 00:49:46;;;;;;;15.73;12.20;;;;;;;;;;5050349;28;20466;-80
2023/07/10 00:52:14;;;;;;;16.97;11.53;;;;;;;;;;5054527;28;20460;-79
2023/07/10 00:54:43;;;;;;;17.70;12.87;;;;;;;;;;5053934;28;20444;-80
2023/07/10 00:57:13;;;;;;;22.40;13.33;;;;;;;;;;5047421;28;20452;-80
2023/07/10 00:59:40;;;;;;;21.43;12.90;;;;;;;;;;5050887;28;20531;-81
2023/07/10 01:02:20;;;;;;;15.10;13.40;;;;;;;;;;5041233;28;20858;-80
2023/07/10 01:04:52;;;;;;;20.70;14.80;;;;;;;;;;5040850;28;20466;-80
2023/07/10 01:07:19;;;;;;;18.83;17.03;;;;;;;;;;5037395;28;20480;-80
2023/07/10 01:09:50;;;;;;;16.80;15.03;;;;;;;;;;5031491;28;20448;-80
2023/07/10 01:12:16;;;;;;;18.60;16.90;;;;;;;;;;5034748;28;20460;-80
2023/07/10 01:14:43;;;;;;;19.47;17.43;;;;;;;;;;5029646;28;20448;-81
2023/07/10 01:17:09;;;;;;;20.27;18.37;;;;;;;;;;5030219;28;20445;-80
2023/07/10 01:19:37;;;;;;;19.00;17.20;;;;;;;;;;5035071;28;20476;-81
2023/07/10 01:22:09;;;;;;;18.10;15.77;;;;;;;;;;5034466;28;20480;-80
2023/07/10 01:24:36;;;;;;;22.33;20.20;;;;;;;;;;5029042;28;20898;-80
2023/07/10 01:27:03;;;;;;;23.47;21.07;;;;;;;;;;5033420;28;20906;-83
2023/07/10 01:29:31;;;;;;;20.40;18.30;;;;;;;;;;5022357;28;20469;-81
2023/07/10 01:31:58;;;;;;;25.20;18.77;;;;;;;;;;5033230;28;20484;-80
2023/07/10 01:34:28;;;;;;;21.57;19.50;;;;;;;;;;5030159;28;20477;-80
2023/07/10 01:36:55;;;;;;;22.53;20.13;;;;;;;;;;5027892;28;20982;-80
2023/07/10 01:39:29;;;;;;;22.60;19.60;;;;;;;;;;5031728;28;20480;-80
2023/07/10 01:41:56;;;;;;;25.33;19.93;;;;;;;;;;5036223;28;20469;-80
2023/07/10 01:44:23;;;;;;;24.73;22.23;;;;;;;;;;5033798;28;20449;-80
2023/07/10 01:46:50;;;;;;;24.90;22.30;;;;;;;;;;5053333;28;20467;-81
2023/07/10 01:49:17;;;;;;;21.43;19.10;;;;;;;;;;5056230;28;20480;-81
2023/07/10 01:51:43;;;;;;;24.47;19.30;;;;;;;;;;5035535;28;20476;-80
2023/07/10 01:54:12;;;;;;;23.40;20.17;;;;;;;;;;5030138;28;20477;-80
2023/07/10 01:56:40;;;;;;;41.10;23.07;;;;;;;;;;5023518;28;20469;-80
2023/07/10 01:59:06;;;;;;;31.30;20.67;;;;;;;;;;5020684;28;20481;-80
2023/07/10 02:01:33;;;;;;;24.67;22.00;;;;;;;;;;5026524;28;20469;-80
2023/07/10 02:03:59;;;;;;;29.63;22.67;;;;;;;;;;5035688;28;20449;-81
2023/07/10 02:06:26;;;;;;;32.20;22.90;;;;;;;;;;5035936;28;20480;-80
2023/07/10 02:08:52;;;;;;;21.13;18.93;;;;;;;;;;5034531;28;20488;-80
2023/07/10 02:11:19;;;;;;;24.20;21.13;;;;;;;;;;5030544;28;20475;-80
2023/07/10 02:13:47;;;;;;;24.97;21.90;;;;;;;;;;5034368;28;20480;-80
2023/07/10 02:16:14;;;;;;;26.60;22.13;;;;;;;;;;5034686;28;20477;-80
2023/07/10 02:18:41;;;;;;;22.93;20.53;;;;;;;;;;5036303;28;20476;-80
2023/07/10 02:21:07;;;;;;;25.73;23.13;;;;;;;;;;5029547;28;20468;-81
2023/07/10 02:23:34;;;;;;;22.50;19.93;;;;;;;;;;5029667;28;20461;-81
2023/07/10 02:26:01;;;;;;;24.13;21.60;;;;;;;;;;5030459;28;20472;-79
2023/07/10 02:28:27;;;;;;;24.37;21.60;;;;;;;;;;5023197;28;20472;-79
2023/07/10 02:30:55;;;;;;;29.10;22.30;;;;;;;;;;5032833;28;20480;-80
2023/07/10 02:33:22;;;;;;;22.50;19.93;;;;;;;;;;5021665;28;20488;-80
2023/07/10 02:35:49;;;;;;;21.23;18.03;;;;;;;;;;5030499;28;20844;-80
2023/07/10 02:38:15;;;;;;;31.23;21.80;;;;;;;;;;5033217;28;20480;-80
2023/07/10 02:40:43;;;;;;;24.10;20.40;;;;;;;;;;5028574;28;20476;-81
2023/07/10 02:43:10;;;;;;;27.77;20.27;;;;;;;;;;5032697;28;20445;-80
2023/07/10 02:45:37;;;;;;;32.03;21.83;;;;;;;;;;5038226;28;20484;-81
2023/07/10 02:48:05;;;;;;;25.37;22.60;;;;;;;;;;5038833;28;20488;-80
2023/07/10 02:50:31;;;;;;;31.20;23.07;;;;;;;;;;5039718;28;20464;-81
2023/07/10 02:52:57;;;;;;;32.60;26.57;;;;;;;;;;5033503;28;20966;-80
2023/07/10 02:55:24;;;;;;;31.60;26.50;;;;;;;;;;5028350;28;20496;-80
2023/07/10 02:57:50;;;;;;;34.90;27.40;;;;;;;;;;5035280;28;20491;-80
2023/07/10 03:00:17;;;;;;;35.50;29.73;;;;;;;;;;5031674;28;20476;-80
2023/07/10 03:02:43;;;;;;;37.33;26.87;;;;;;;;;;5047616;28;20460;-81
2023/07/10 03:05:11;;;;;;;30.77;26.10;;;;;;;;;;5034375;28;20465;-81
2023/07/10 03:07:38;;;;;;;30.80;27.23;;;;;;;;;;5030965;28;20489;-80
2023/07/10 03:10:05;;;;;;;31.70;26.67;;;;;;;;;;5036212;28;20515;-81
2023/07/10 03:12:31;;;;;;;31.83;25.23;;;;;;;;;;5027556;28;20445;-80
2023/07/10 03:14:58;;;;;;;37.63;28.47;;;;;;;;;;5036561;28;20487;-81
2023/07/10 03:17:24;;;;;;;40.87;29.77;;;;;;;;;;5039054;28;20464;-80
2023/07/10 03:19:51;;;;;;;36.40;26.90;;;;;;;;;;5036806;28;21013;-81
2023/07/10 03:22:19;;;;;;;35.60;28.53;;;;;;;;;;5034843;28;20452;-80
2023/07/10 03:24:46;;;;;;;37.23;26.83;;;;;;;;;;5026289;28;20454;-80
2023/07/10 03:27:12;;;;;;;34.33;24.77;;;;;;;;;;5035183;28;20458;-79
2023/07/10 03:29:38;;;;;;;30.70;23.83;;;;;;;;;;5038924;28;20445;-79
2023/07/10 03:32:07;;;;;;;29.97;24.60;;;;;;;;;;5033604;28;20470;-79
2023/07/10 03:34:33;;;;;;;33.43;25.67;;;;;;;;;;5024538;28;20496;-80
2023/07/10 03:36:59;;;;;;;33.90;25.93;;;;;;;;;;5035820;28;20476;-80
2023/07/10 03:39:27;;;;;;;35.73;25.57;;;;;;;;;;5030514;28;20457;-79
2023/07/10 03:41:54;;;;;;;37.13;27.80;;;;;;;;;;5049602;28;20471;-79
2023/07/10 03:44:20;;;;;;;38.27;27.67;;;;;;;;;;5049829;28;20463;-79
2023/07/10 03:46:46;;;;;;;34.37;27.37;;;;;;;;;;5055070;28;20470;-79
2023/07/10 03:49:13;;;;;;;33.90;26.20;;;;;;;;;;5048495;28;20480;-79
2023/07/10 03:51:39;;;;;;;29.37;25.67;;;;;;;;;;5054361;28;20514;-79
2023/07/10 03:54:07;;;;;;;32.53;25.73;;;;;;;;;;5054967;28;20479;-81
2023/07/10 03:56:35;;;;;;;38.40;28.20;;;;;;;;;;5056968;28;20484;-79
2023/07/10 03:59:01;;;;;;;36.67;26.17;;;;;;;;;;5049508;28;20472;-79
2023/07/10 04:01:28;;;;;;;36.13;26.20;;;;;;;;;;5049644;28;20472;-79
2023/07/10 04:03:54;;;;;;;46.73;28.13;;;;;;;;;;5052896;28;20460;-78
2023/07/10 04:06:21;;;;;;;39.13;26.97;;;;;;;;;;5053130;28;20482;-79
2023/07/10 04:08:47;;;;;;;34.90;23.77;;;;;;;;;;5053582;28;20463;-80
2023/07/10 04:11:15;;;;;;;40.27;27.30;;;;;;;;;;5049998;28;20468;-80
2023/07/10 04:13:43;;;;;;;31.90;25.40;;;;;;;;;;5051609;28;20994;-81
2023/07/10 04:16:11;;;;;;;31.90;23.73;;;;;;;;;;5050491;28;20477;-79
2023/07/10 04:18:39;;;;;;;31.53;24.43;;;;;;;;;;5043490;28;20468;-79
2023/07/10 04:21:06;;;;;;;30.57;22.43;;;;;;;;;;5052846;28;20476;-79
2023/07/10 04:23:33;;;;;;;29.80;22.57;;;;;;;;;;5054691;28;20464;-80
2023/07/10 04:26:00;;;;;;;23.73;20.93;;;;;;;;;;5050089;28;20477;-80
2023/07/10 04:28:26;;;;;;;25.10;22.40;;;;;;;;;;5037443;28;20520;-79
2023/07/10 04:30:54;;;;;;;22.87;19.93;;;;;;;;;;5055020;28;20486;-79
2023/07/10 04:33:21;;;;;;;26.03;21.30;;;;;;;;;;5014095;28;1111387;-79
2023/07/10 04:35:52;;;;;;;20.97;17.30;;;;;;;;;;5049641;28;20480;-80
2023/07/10 04:38:19;;;;;;;17.73;15.53;;;;;;;;;;5055835;28;20467;-79
2023/07/10 04:40:51;;;;;;;19.67;15.93;;;;;;;;;;5053935;28;20479;-79
2023/07/10 04:43:17;;;;;;;16.40;13.53;;;;;;;;;;5053530;28;20444;-80
2023/07/10 04:45:44;;;;;;;18.33;15.10;;;;;;;;;;5052098;28;20499;-80
2023/07/10 04:48:12;;;;;;;18.67;15.70;;;;;;;;;;5042292;28;20499;-79
2023/07/10 04:50:38;;;;;;;18.77;16.77;;;;;;;;;;5040659;28;20477;-80
2023/07/10 04:53:04;;;;;;;18.17;15.40;;;;;;;;;;5032332;28;20445;-80
2023/07/10 04:55:32;;;;;;;23.40;17.57;;;;;;;;;;5031346;28;20480;-79
2023/07/10 04:57:58;;;;;;;20.30;17.10;;;;;;;;;;5037080;28;20465;-80
2023/07/10 05:00:27;;;;;;;21.20;16.37;;;;;;;;;;5032912;28;20476;-79
2023/07/10 05:02:53;;;;;;;24.57;17.77;;;;;;;;;;5032810;28;20465;-80
2023/07/10 05:05:21;;;;;;;24.67;17.07;;;;;;;;;;5031004;28;20462;-80
2023/07/10 05:07:47;;;;;;;26.90;18.93;;;;;;;;;;5028770;28;20528;-79
2023/07/10 05:10:14;;;;;;;27.00;20.80;;;;;;;;;;5036168;28;20473;-79
2023/07/10 05:12:40;;;;;;;28.27;21.17;;;;;;;;;;5032796;28;20445;-79
2023/07/10 05:15:07;;;;;;;26.47;20.70;;;;;;;;;;5017403;28;20472;-79
2023/07/10 05:17:34;;;;;;;34.70;21.90;;;;;;;;;;5027093;28;21005;-79
2023/07/10 05:20:00;;;;;;;32.50;24.30;;;;;;;;;;5036358;28;20473;-81
2023/07/10 05:22:28;;;;;;;33.80;23.17;;;;;;;;;;5030997;28;20947;-81
2023/07/10 05:24:55;;;;;;;35.50;25.10;;;;;;;;;;5030886;28;20452;-81
2023/07/10 05:27:21;;;;;;;36.10;25.47;;;;;;;;;;5034879;28;20492;-80
2023/07/10 05:29:47;;;;;;;42.80;25.33;;;;;;;;;;5024493;28;20476;-81
2023/07/10 05:32:14;;;;;;;36.43;25.30;;;;;;;;;;5028769;28;20453;-80
2023/07/10 05:34:40;;;;;;;35.50;23.47;;;;;;;;;;5025688;28;20472;-82
2023/07/10 05:37:07;;;;;;;35.87;22.20;;;;;;;;;;5025957;28;20441;-82
2023/07/10 05:39:34;;;;;;;33.73;20.97;;;;;;;;;;5028945;28;20457;-81
2023/07/10 05:42:02;;;;;;;28.23;20.47;;;;;;;;;;5022111;28;20527;-81
2023/07/10 05:44:28;;;;;;;30.33;20.60;;;;;;;;;;5028839;28;20453;-81
2023/07/10 05:46:56;;;;;;;26.60;19.40;;;;;;;;;;5045196;28;20464;-81
2023/07/10 05:49:22;;;;;;;33.10;18.80;;;;;;;;;;5048724;28;20483;-81
2023/07/10 05:51:49;;;;;;;26.70;18.43;;;;;;;;;;5039282;28;20472;-83
2023/07/10 05:54:15;;;;;;;28.57;19.07;;;;;;;;;;5051564;28;20486;-81
2023/07/10 05:56:44;;;;;;;23.07;17.03;;;;;;;;;;5030810;28;20476;-81
2023/07/10 05:59:11;;;;;;;27.43;19.90;;;;;;;;;;5027631;28;20484;-80
2023/07/10 06:01:38;;;;;;;27.53;19.50;;;;;;;;;;5032821;28;20480;-81
2023/07/10 06:04:05;;;;;;;30.00;20.77;;;;;;;;;;5026652;28;20445;-83
2023/07/10 06:06:31;;;;;;;25.90;18.90;;;;;;;;;;5029180;28;20484;-80
2023/07/10 06:08:57;;;;;;;32.63;20.60;;;;;;;;;;5017958;28;20477;-80
2023/07/10 06:11:24;;;;;;;38.57;21.43;;;;;;;;;;5030472;28;20485;-80
2023/07/10 06:13:52;;;;;;;37.67;23.80;;;;;;;;;;5019024;28;20441;-82
2023/07/10 06:16:18;;;;;;;30.57;22.30;;;;;;;;;;5034364;28;20472;-80
2023/07/10 06:18:45;;;;;;;28.27;22.43;;;;;;;;;;5035158;28;20461;-81
2023/07/10 06:21:12;;;;;;;34.33;20.90;;;;;;;;;;5035133;28;20495;-80
2023/07/10 06:23:38;;;;;;;29.43;22.30;;;;;;;;;;5026420;28;20475;-81
2023/07/10 06:26:05;;;;;;;25.80;19.13;;;;;;;;;;5033528;28;20464;-80
2023/07/10 06:28:32;;;;;;;25.70;18.50;;;;;;;;;;5032584;28;20472;-80
2023/07/10 06:31:01;;;;;;;28.03;18.50;;;;;;;;;;5025125;28;20477;-80
2023/07/10 06:33:28;;;;;;;24.77;16.83;;;;;;;;;;5032814;28;20473;-80
2023/07/10 06:35:54;;;;;;;25.57;16.50;;;;;;;;;;5033844;28;20483;-81
2023/07/10 06:38:21;;;;;;;22.53;14.60;;;;;;;;;;5033275;28;20487;-80
2023/07/10 06:40:48;;;;;;;24.90;17.27;;;;;;;;;;5028130;28;20476;-81
2023/07/10 06:43:15;;;;;;;23.93;17.13;;;;;;;;;;5025654;28;20452;-81
2023/07/10 06:45:43;;;;;;;26.57;16.10;;;;;;;;;;5030895;28;20531;-80
2023/07/10 06:48:10;;;;;;;23.23;14.57;;;;;;;;;;5033719;28;21001;-80
2023/07/10 06:50:37;;;;;;;27.33;15.87;;;;;;;;;;5034364;28;20473;-81
2023/07/10 06:53:04;;;;;;;22.67;15.40;;;;;;;;;;5034602;28;20455;-80
2023/07/10 06:55:31;;;;;;;21.63;15.30;;;;;;;;;;5031812;28;20843;-81
2023/07/10 06:57:57;;;;;;;15.97;12.53;;;;;;;;;;5028845;28;20473;-82
2023/07/10 07:00:23;;;;;;;15.40;11.20;;;;;;;;;;5034205;28;20471;-80
2023/07/10 07:02:51;;;;;;;18.87;10.33;;;;;;;;;;5031599;28;20467;-81
2023/07/10 07:05:19;;;;;;;12.33;9.60;;;;;;;;;;5028402;28;20469;-81
2023/07/10 07:07:46;;;;;;;11.13;8.53;;;;;;;;;;5032400;28;20476;-83
2023/07/10 07:10:14;;;;;;;15.43;8.50;;;;;;;;;;5033215;28;20480;-81
2023/07/10 07:12:41;;;;;;;9.83;8.50;;;;;;;;;;5029114;28;20959;-82
2023/07/10 07:15:08;;;;;;;13.00;8.00;;;;;;;;;;5026724;28;20473;-82
2023/07/10 07:17:34;;;;;;;10.07;5.73;;;;;;;;;;5035196;28;20464;-81
2023/07/10 07:20:01;;;;;;;6.40;5.80;;;;;;;;;;5027398;28;20513;-81
2023/07/10 07:22:29;;;;;;;8.43;6.33;;;;;;;;;;5030622;28;20465;-82
2023/07/10 07:24:56;;;;;;;5.70;4.60;;;;;;;;;;5027321;28;20450;-81
2023/07/10 07:27:23;;;;;;;8.17;5.00;;;;;;;;;;5022050;28;20532;-82
2023/07/10 07:29:51;;;;;;;5.00;4.50;;;;;;;;;;5026980;28;20507;-80
2023/07/10 07:32:18;;;;;;;5.80;4.30;;;;;;;;;;5038591;28;20479;-82
2023/07/10 07:34:45;;;;;;;4.87;4.17;;;;;;;;;;5031583;28;20484;-81
2023/07/10 07:37:11;;;;;;;5.67;4.47;;;;;;;;;;5036579;28;20444;-81
2023/07/10 07:39:39;;;;;;;5.70;4.60;;;;;;;;;;5039167;28;20455;-81
2023/07/10 07:42:06;;;;;;;8.93;4.67;;;;;;;;;;5031582;28;21050;-81
2023/07/10 07:44:32;;;;;;;12.33;5.27;;;;;;;;;;5029472;28;20857;-82
2023/07/10 07:46:59;;;;;;;8.23;6.20;;;;;;;;;;5034995;28;20829;-81
2023/07/10 07:49:25;;;;;;;9.83;7.77;;;;;;;;;;5035961;28;20812;-80
2023/07/10 07:51:52;;;;;;;9.70;7.40;;;;;;;;;;5030082;28;20468;-80
2023/07/10 07:54:19;;;;;;;10.83;8.33;;;;;;;;;;5024772;28;20453;-81
2023/07/10 07:56:47;;;;;;;8.43;6.87;;;;;;;;;;5031977;28;20480;-81
2023/07/10 07:59:16;;;;;;;11.23;7.03;;;;;;;;;;5030755;28;20484;-82
2023/07/10 08:01:42;;;;;;;10.63;7.33;;;;;;;;;;5028834;28;20870;-81
2023/07/10 08:04:09;;;;;;;9.00;6.20;;;;;;;;;;5034009;28;20453;-81
2023/07/10 08:06:35;;;;;;;9.33;6.20;;;;;;;;;;5035648;28;20472;-80
2023/07/10 08:09:02;;;;;;;6.30;5.70;;;;;;;;;;5027244;28;20487;-81
2023/07/10 08:11:29;;;;;;;9.57;5.77;;;;;;;;;;5034977;28;20468;-81
2023/07/10 08:13:56;;;;;;;9.33;5.90;;;;;;;;;;5033343;28;20445;-81
2023/07/10 08:16:23;;;;;;;7.93;6.30;;;;;;;;;;5035066;28;20515;-81
2023/07/10 08:18:49;;;;;;;12.83;6.97;;;;;;;;;;5028851;28;20476;-81
2023/07/10 08:21:16;;;;;;;7.63;5.70;;;;;;;;;;5036303;28;20473;-82
2023/07/10 08:23:42;;;;;;;11.83;7.40;;;;;;;;;;5031222;28;20452;-80
2023/07/10 08:26:09;;;;;;;9.10;6.17;;;;;;;;;;5033086;28;20836;-80
2023/07/10 08:28:35;;;;;;;10.40;5.80;;;;;;;;;;5035862;28;20509;-81
2023/07/10 08:31:03;;;;;;;5.90;5.30;;;;;;;;;;5026580;28;20477;-81
2023/07/10 08:33:30;;;;;;;6.33;5.33;;;;;;;;;;5027411;28;20457;-79
2023/07/10 08:35:57;;;;;;;7.73;5.40;;;;;;;;;;5030656;28;20469;-79
2023/07/10 08:38:23;;;;;;;6.70;5.50;;;;;;;;;;5025349;28;20461;-81
2023/07/10 08:40:50;;;;;;;9.00;5.23;;;;;;;;;;5031637;28;20513;-81
2023/07/10 08:43:24;;;;;;;7.90;5.53;;;;;;;;;;5036750;28;20453;-80
2023/07/10 08:45:51;;;;;;;9.40;5.73;;;;;;;;;;5036113;28;20465;-79
2023/07/10 08:48:24;;;;;;;5.13;4.40;;;;;;;;;;5036805;28;20472;-81
2023/07/10 08:50:50;;;;;;;6.33;4.80;;;;;;;;;;5036214;28;20526;-80
2023/07/10 08:53:22;;;;;;;9.20;4.07;;;;;;;;;;5036121;28;20453;-81
2023/07/10 08:55:53;;;;;;;4.93;3.93;;;;;;;;;;5027388;28;20884;-82
2023/07/10 08:58:21;;;;;;;7.53;3.90;;;;;;;;;;5033017;28;20472;-80
2023/07/10 09:00:50;;;;;;;4.00;3.60;;;;;;;;;;5033913;28;20473;-81
2023/07/10 09:03:20;;;;;;;5.57;3.20;;;;;;;;;;5034096;28;20540;-79
2023/07/10 09:05:49;;;;;;;5.87;4.30;;;;;;;;;;5044812;28;20461;-79
2023/07/10 09:08:17;;;;;;;5.07;3.60;;;;;;;;;;5040567;28;20461;-79
2023/07/10 09:10:45;;;;;;;4.20;3.40;;;;;;;;;;5052885;28;20476;-80
2023/07/10 09:13:13;;;;;;;8.17;3.67;;;;;;;;;;5039576;28;20826;-80
2023/07/10 09:15:42;;;;;;;3.87;3.23;;;;;;;;;;5044408;28;20499;-79
2023/07/10 09:18:14;;;;;;;6.07;3.40;;;;;;;;;;5045088;28;20992;-80
2023/07/10 09:20:41;;;;;;;4.67;4.17;;;;;;;;;;5047554;28;20848;-80
2023/07/10 09:23:17;;;;;;;3.73;2.60;;;;;;;;;;5036830;28;20472;-80
2023/07/10 09:25:44;;;;;;;6.70;4.10;;;;;;;;;;5051934;28;20860;-79
2023/07/10 09:28:10;;;;;;;5.57;3.17;;;;;;;;;;5043597;28;20464;-80
2023/07/10 09:30:40;;;;;;;8.60;2.50;;;;;;;;;;5052290;28;20479;-78
2023/07/10 09:33:08;;;;;;;4.20;2.33;;;;;;;;;;5052231;28;20448;-80
2023/07/10 09:35:36;;;;;;;5.97;2.40;;;;;;;;;;5053567;28;20956;-78
2023/07/10 09:38:03;;;;;;;5.13;2.47;;;;;;;;;;5050475;28;20535;-81
2023/07/10 09:40:44;;;;;;;4.83;2.50;;;;;;;;;;5050722;28;20551;-80
2023/07/10 09:43:15;;;;;;;2.80;2.03;;;;;;;;;;5045552;28;20453;-80
2023/07/10 09:45:44;;;;;;;4.10;2.00;;;;;;;;;;5045669;28;20468;-79
2023/07/10 09:48:13;;;;;;;6.10;2.50;;;;;;;;;;5042793;28;20468;-78
2023/07/10 09:50:42;;;;;;;3.60;2.87;;;;;;;;;;5041385;28;20464;-79
2023/07/10 09:53:22;;;;;;;4.03;2.07;;;;;;;;;;5042628;28;20451;-81
2023/07/10 09:55:49;;;;;;;4.10;2.20;;;;;;;;;;5054233;28;20480;-81
2023/07/10 09:58:17;;;;;;;5.67;2.50;;;;;;;;;;5051228;28;20847;-80
2023/07/10 10:00:45;;;;;;;5.60;3.03;;;;;;;;;;5044716;28;20471;-80
2023/07/10 10:03:16;;;;;;;4.83;2.10;;;;;;;;;;5056132;28;20491;-79
2023/07/10 10:05:43;;;;;;;1.80;1.70;;;;;;;;;;5047418;28;21055;-80
2023/07/10 10:08:12;;;;;;;7.17;2.87;;;;;;;;;;5041980;28;20483;-80
2023/07/10 10:10:39;;;;;;;3.87;2.67;;;;;;;;;;5053477;28;20490;-80
2023/07/10 10:13:07;;;;;;;3.10;1.87;;;;;;;;;;5055857;28;20460;-80
2023/07/10 10:15:37;;;;;;;2.90;2.17;;;;;;;;;;5054170;28;20488;-81
2023/07/10 10:18:06;;;;;;;6.60;2.50;;;;;;;;;;5052080;28;20465;-80
2023/07/10 10:20:34;;;;;;;5.47;2.17;;;;;;;;;;5049369;28;20509;-81
2023/07/10 10:23:01;;;;;;;6.13;2.07;;;;;;;;;;5051224;28;20444;-80
2023/07/10 10:25:32;;;;;;;6.93;2.50;;;;;;;;;;5043415;28;20479;-80
2023/07/10 10:28:02;;;;;;;2.57;2.13;;;;;;;;;;5049411;28;20471;-80
2023/07/10 10:30:34;;;;;;;4.63;1.67;;;;;;;;;;5040278;28;20471;-80
2023/07/10 10:33:18;;;;;;;8.87;2.40;;;;;;;;;;5050668;28;20940;-80
2023/07/10 10:35:50;;;;;;;6.13;1.97;;;;;;;;;;5050880;28;20505;-81
2023/07/10 10:38:23;;;;;;;4.43;2.10;;;;;;;;;;5045062;28;20467;-81
2023/07/10 10:40:52;;;;;;;4.37;2.63;;;;;;;;;;5055703;28;20511;-80
2023/07/10 10:43:34;;;;;;;3.77;2.60;;;;;;;;;;5048904;28;20444;-81
2023/07/10 10:46:05;;;;;;;6.60;2.20;;;;;;;;;;5033978;28;20460;-81
2023/07/10 10:48:35;;;;;;;7.80;2.83;;;;;;;;;;5056317;28;20472;-80
2023/07/10 10:51:05;;;;;;;6.10;2.50;;;;;;;;;;5053723;28;20988;-80
2023/07/10 10:53:38;;;;;;;3.87;1.93;;;;;;;;;;5054373;28;20451;-81
2023/07/10 10:56:10;;;;;;;5.50;2.53;;;;;;;;;;5052091;28;20475;-81
2023/07/10 10:58:44;;;;;;;4.67;2.50;;;;;;;;;;5051870;28;20464;-81
2023/07/10 11:01:21;;;;;;;7.40;3.13;;;;;;;;;;5044043;28;20484;-82
2023/07/10 11:03:54;;;;;;;5.77;2.27;;;;;;;;;;5059335;28;20834;-81
2023/07/10 11:06:34;;;;;;;15.30;2.50;;;;;;;;;;5052332;28;20456;-82
2023/07/10 11:09:02;;;;;;;4.33;2.20;;;;;;;;;;5058628;28;20481;-80
2023/07/10 11:11:32;;;;;;;3.43;2.07;;;;;;;;;;5055886;28;20472;-81
2023/07/10 11:13:59;;;;;;;6.80;2.50;;;;;;;;;;5054221;28;20449;-81
2023/07/10 11:16:26;;;;;;;4.40;2.73;;;;;;;;;;5050662;28;20483;-81
2023/07/10 11:18:54;;;;;;;6.60;2.97;;;;;;;;;;5055266;28;21138;-81
2023/07/10 11:21:22;;;;;;;8.77;2.93;;;;;;;;;;5049543;28;21059;-82
2023/07/10 11:23:50;;;;;;;6.70;3.00;;;;;;;;;;5053720;28;20456;-81
2023/07/10 11:26:17;;;;;;;4.20;2.30;;;;;;;;;;5053486;28;20544;-81
2023/07/10 11:28:51;;;;;;;2.60;2.40;;;;;;;;;;5047837;28;20974;-81
2023/07/10 11:31:19;;;;;;;4.13;2.50;;;;;;;;;;5055076;28;20482;-82
2023/07/10 11:33:51;;;;;;;11.30;3.40;;;;;;;;;;5055222;28;20972;-80
2023/07/10 11:36:36;;;;;;;6.97;2.57;;;;;;;;;;5057827;28;20471;-80
2023/07/10 11:39:12;;;;;;;4.60;2.50;;;;;;;;;;5047520;28;20473;-79
2023/07/10 11:41:39;;;;;;;6.93;2.60;;;;;;;;;;5052941;28;20479;-80
2023/07/10 11:44:13;;;;;;;7.07;2.40;;;;;;;;;;5054531;28;20451;-81
2023/07/10 11:46:55;;;;;;;3.00;2.33;;;;;;;;;;5048721;28;20469;-81
2023/07/10 11:49:21;;;;;;;5.97;2.20;;;;;;;;;;5040487;28;20473;-82
2023/07/10 11:52:03;;;;;;;4.50;2.50;;;;;;;;;;5058482;28;20471;-80
2023/07/10 11:54:38;;;;;;;5.30;2.33;;;;;;;;;;5044277;28;20462;-82
2023/07/10 11:57:11;;;;;;;5.40;2.33;;;;;;;;;;5056998;28;20479;-80
2023/07/10 11:59:39;;;;;;;5.87;2.50;;;;;;;;;;5066749;28;20436;-80
2023/07/10 12:02:17;;;;;;;4.90;2.67;;;;;;;;;;5057476;28;20475;-81
2023/07/10 12:04:45;;;;;;;5.87;2.50;;;;;;;;;;5054107;28;20812;-79
2023/07/10 12:07:12;;;;;;;9.77;3.07;;;;;;;;;;5054244;28;21008;-81
2023/07/10 12:09:40;;;;;;;4.10;2.10;;;;;;;;;;5052541;28;20447;-81
2023/07/10 12:12:13;;;;;;;5.93;2.57;;;;;;;;;;5055017;28;20456;-81
2023/07/10 12:14:39;;;;;;;5.97;2.60;;;;;;;;;;5056597;28;20440;-81
2023/07/10 12:17:10;;;;;;;4.23;2.50;;;;;;;;;;5029300;28;20476;-81
2023/07/10 12:19:37;;;;;;;5.03;2.80;;;;;;;;;;5033997;28;20452;-80
2023/07/10 12:22:04;;;;;;;4.43;2.93;;;;;;;;;;5022773;28;20474;-81
2023/07/10 12:24:30;;;;;;;4.90;2.30;;;;;;;;;;5027698;28;20446;-81
2023/07/10 12:26:59;;;;;;;5.27;2.00;;;;;;;;;;5021336;28;20474;-80
2023/07/10 12:29:27;;;;;;;3.30;2.40;;;;;;;;;;5039533;28;20444;-82
2023/07/10 12:31:54;;;;;;;5.77;2.13;;;;;;;;;;5039613;28;20469;-81
2023/07/10 12:34:23;;;;;;;9.43;2.40;;;;;;;;;;5032876;28;20468;-81
2023/07/10 12:36:50;;;;;;;6.80;2.67;;;;;;;;;;5019832;28;20477;-80
2023/07/10 12:39:17;;;;;;;6.90;2.87;;;;;;;;;;5037011;28;20845;-80
2023/07/10 12:41:45;;;;;;;7.70;2.47;;;;;;;;;;5031769;28;20480;-82
2023/07/10 12:44:16;;;;;;;3.47;2.07;;;;;;;;;;5025197;28;20452;-81
2023/07/10 12:46:44;;;;;;;4.00;1.93;;;;;;;;;;5022956;28;20469;-82
2023/07/10 12:49:12;;;;;;;5.40;2.33;;;;;;;;;;5035963;28;20607;-81
2023/07/10 12:51:39;;;;;;;4.10;2.17;;;;;;;;;;5033882;28;21013;-81
2023/07/10 12:54:14;;;;;;;2.43;2.23;;;;;;;;;;5039027;28;20441;-80
2023/07/10 12:56:41;;;;;;;3.60;2.13;;;;;;;;;;5036866;28;20522;-81
2023/07/10 12:59:14;;;;;;;3.63;2.67;;;;;;;;;;5029830;28;20543;-81
2023/07/10 13:01:49;;;;;;;4.63;2.17;;;;;;;;;;5027903;28;20845;-80
2023/07/10 13:04:20;;;;;;;3.03;2.13;;;;;;;;;;5034668;28;20436;-81
2023/07/10 13:06:46;;;;;;;5.80;2.97;;;;;;;;;;5035979;28;20472;-80
2023/07/10 13:09:20;;;;;;;5.30;2.47;;;;;;;;;;5031983;28;20464;-81
2023/07/10 13:11:47;;;;;;;2.80;2.13;;;;;;;;;;5039652;28;20477;-81
2023/07/10 13:14:22;;;;;;;6.80;2.43;;;;;;;;;;5035269;28;20445;-81
2023/07/10 13:16:51;;;;;;;2.33;1.80;;;;;;;;;;5015483;28;20477;-79
2023/07/10 13:19:18;;;;;;;5.27;2.80;;;;;;;;;;5035303;28;20468;-81
2023/07/10 13:21:44;;;;;;;5.20;2.53;;;;;;;;;;5040316;28;20842;-79
2023/07/10 13:24:10;;;;;;;6.03;1.90;;;;;;;;;;5028927;28;20451;-81
2023/07/10 13:26:37;;;;;;;6.10;2.40;;;;;;;;;;5034578;28;20468;-81
2023/07/10 13:29:03;;;;;;;3.50;1.93;;;;;;;;;;5022619;28;20476;-81
2023/07/10 13:31:31;;;;;;;5.13;2.63;;;;;;;;;;5037001;28;20471;-79
2023/07/10 13:33:59;;;;;;;7.07;2.17;;;;;;;;;;5022814;28;20465;-82
2023/07/10 13:36:26;;;;;;;5.73;2.50;;;;;;;;;;5027522;28;20476;-81
2023/07/10 13:38:53;;;;;;;4.13;2.30;;;;;;;;;;5039842;28;20465;-81
2023/07/10 13:41:20;;;;;;;4.40;2.33;;;;;;;;;;5035945;28;20469;-81
2023/07/10 13:43:47;;;;;;;4.23;2.23;;;;;;;;;;5038686;28;20476;-81
2023/07/10 13:46:18;;;;;;;6.73;2.30;;;;;;;;;;5033565;28;20466;-80
2023/07/10 13:48:45;;;;;;;5.73;2.17;;;;;;;;;;5040080;28;20467;-81
2023/07/10 13:51:12;;;;;;;6.70;2.63;;;;;;;;;;5024617;28;20474;-81
2023/07/10 13:53:39;;;;;;;7.67;2.30;;;;;;;;;;5030268;28;20951;-81
2023/07/10 13:56:10;;;;;;;6.03;2.10;;;;;;;;;;5027161;28;20479;-80
2023/07/10 13:58:37;;;;;;;8.87;3.47;;;;;;;;;;5035932;28;20493;-82
2023/07/10 14:01:03;;;;;;;6.33;2.90;;;;;;;;;;5037348;28;20496;-80
2023/07/10 14:03:30;;;;;;;5.13;2.40;;;;;;;;;;5038118;28;20456;-80
2023/07/10 14:05:57;;;;;;;4.47;2.10;;;;;;;;;;5031834;28;20473;-80
2023/07/10 14:08:26;;;;;;;4.90;2.37;;;;;;;;;;5038708;28;20477;-80
2023/07/10 14:10:53;;;;;;;9.77;2.50;;;;;;;;;;5032942;28;20477;-80
2023/07/10 14:13:20;;;;;;;4.60;3.10;;;;;;;;;;5034992;28;20457;-81
2023/07/10 14:15:46;;;;;;;6.73;3.17;;;;;;;;;;5031816;28;20461;-81
2023/07/10 14:18:14;;;;;;;5.60;2.80;;;;;;;;;;5034411;28;20505;-80
2023/07/10 14:20:40;;;;;;;4.30;2.10;;;;;;;;;;5040761;28;20473;-80
2023/07/10 14:23:12;;;;;;;4.57;2.40;;;;;;;;;;5034131;28;20449;-81
2023/07/10 14:25:40;;;;;;;3.00;2.10;;;;;;;;;;5025863;28;20850;-79
2023/07/10 14:28:10;;;;;;;7.30;3.07;;;;;;;;;;5025868;28;20477;-79
2023/07/10 14:30:36;;;;;;;4.07;2.17;;;;;;;;;;5029938;28;20469;-81
2023/07/10 14:33:03;;;;;;;5.93;2.90;;;;;;;;;;5034315;28;20467;-79
2023/07/10 14:35:29;;;;;;;6.30;2.77;;;;;;;;;;5031725;28;20469;-82